Terminal Aerodrome Forecast
Issued by NWS

Home | Current Version | Previous Version | Text Only | Print | Product List | Glossary On
Versions: 1 2 3 4 5 6 7 8 9 10 11 12 13 14 15 16 17
000
FTUS45 KVEF 282300
TAFDAG
TAF
KDAG 282338Z 2900/2924 25012G24KT P6SM VCTS FEW080CB SCT100 BKN150
     FM290300 27013KT P6SM SCT120 BKN200
     FM291800 25012KT P6SM SCT150=

USA.gov is the U.S. government's official web portal to all federal, state and local government web resources and services.